Route Details

Aircraft Information
Group: Hub to Hub
Types: B744, MD11, B763, B762, B752, B738
Route Data
Distance: 392nm
Duration: 1h 35m
Origin METAR: KSDF 152356Z 02009KT 10SM FEW045 FEW090 BKN250 27/18 A2994 RMK AO2 SLP133 T02670183 10294 20256 53006
Dest. METAR: KIAD 152352Z 31005KT 10SM BKN080 BKN120 BKN160 19/16 A2997 RMK AO2 SLP147 T01940161 10217 20194 58000
Freight Data
(for Aug 16, 2022)
Load Factor:
50%
Manifested Cargo: 74,550lbs
Financial History
Total Freight: 519,602lbs
Average Load: 0lbs/flt
Fuel Used: 58,771lbs
Avg. Fuel Used: 0lbs/flt
Fuel Expense: $46,787
Avg. Fuel Expense: $0
Avg. Fuel Cost: $0/lbs
Total Gross Income: $600,119
Pilot Pay: $706
Total Expenses: $93,671
Total Revenue: $458,435
Average Revenue: $0

Capitol Logistics 440




KSDF
Muhammad Ali International Airport
Louisville, Kentucky
KIAD
Washington Dulles International Airport
Dulles, Virginia

Activity Log

Date Flight Route Aircraft Duration
07/14/2022 CPX440 FEDRA5 SHIPR HVQ GIBBZ4 B763 1h 02m
01/20/2020 CPX2220 HYK HVQ GIBBZ3 B763 1h 18m
12/04/2019 CPX2220 HYK HVQ GIBBZ3 B763 1h 23m
04/04/2018 CPX990 FEDRA3 SHIPR HVQ GIBBZ2 B744 1h 17m